Time;durP1;ratioP1;P1;durP2;ratioP2;P2;SDS_P1;SDS_P2;PMS_P1;PMS_P2;Temp;Humidity;BMP_temperature;BMP_pressure;BME280_temperature;BME280_humidity;BME280_pressure;Samples;Min_cycle;Max_cycle;Signal;HPM_P1;HPM_P2
2023/08/24 00:00:32;;;;;;;1.38;0.93;;;;;;;15.22;83.08;100471.00;5006293;28;20046;-59
2023/08/24 00:02:57;;;;;;;0.50;0.50;;;;;;;15.20;82.76;100480.63;5006696;28;20034;-58
2023/08/24 00:05:23;;;;;;;3.50;1.30;;;;;;;15.16;82.72;100476.41;5006090;28;20093;-57
2023/08/24 00:07:48;;;;;;;3.08;0.93;;;;;;;15.15;82.70;100479.88;5006462;28;20030;-59
2023/08/24 00:10:14;;;;;;;1.30;1.15;;;;;;;15.11;82.75;100474.75;5006157;28;20023;-60
2023/08/24 00:12:39;;;;;;;1.65;0.98;;;;;;;15.14;82.59;100470.34;5006165;28;20478;-58
2023/08/24 00:15:08;;;;;;;1.38;1.27;;;;;;;15.14;82.92;100462.50;5005649;28;20152;-58
2023/08/24 00:17:34;;;;;;;0.80;0.63;;;;;;;15.15;82.72;100464.19;5006402;28;20037;-59
2023/08/24 00:19:59;;;;;;;1.85;1.30;;;;;;;15.18;82.80;100479.81;5006258;28;20022;-59
2023/08/24 00:22:25;;;;;;;0.95;0.80;;;;;;;15.15;82.94;100467.69;5006015;28;20252;-58
2023/08/24 00:24:50;;;;;;;2.45;1.48;;;;;;;15.21;82.67;100464.91;5005999;28;20423;-59
2023/08/24 00:27:16;;;;;;;1.17;1.00;;;;;;;15.20;82.50;100464.94;5006055;28;20026;-59
2023/08/24 00:29:41;;;;;;;1.70;0.70;;;;;;;15.22;82.37;100456.16;5005987;28;20026;-59
2023/08/24 00:32:08;;;;;;;0.95;0.88;;;;;;;15.26;81.90;100459.53;5004661;28;20026;-59
2023/08/24 00:34:33;;;;;;;0.68;0.65;;;;;;;15.29;81.68;100454.22;5005520;28;20026;-56
2023/08/24 00:36:58;;;;;;;7.70;1.02;;;;;;;15.30;81.62;100450.72;5005758;28;20026;-56
2023/08/24 00:39:24;;;;;;;1.40;1.27;;;;;;;15.36;81.04;100447.06;5005510;28;20536;-57
2023/08/24 00:41:49;;;;;;;0.85;0.75;;;;;;;15.38;80.98;100450.53;5005672;28;20027;-55
2023/08/24 00:44:14;;;;;;;4.68;0.82;;;;;;;15.35;80.74;100448.00;5004383;28;20037;-56
2023/08/24 00:46:41;;;;;;;0.95;0.85;;;;;;;15.38;80.69;100452.25;5005528;28;20034;-57
2023/08/24 00:49:07;;;;;;;0.73;0.70;;;;;;;15.30;80.29;100442.88;5005242;28;20395;-55
2023/08/24 00:51:32;;;;;;;1.38;0.82;;;;;;;15.32;79.79;100448.06;5005686;28;20022;-57
2023/08/24 00:53:58;;;;;;;0.95;0.80;;;;;;;15.31;79.71;100454.19;5005476;28;20022;-58
2023/08/24 00:56:24;;;;;;;2.15;0.98;;;;;;;15.25;79.82;100444.75;5005275;28;20377;-56
2023/08/24 00:58:51;;;;;;;2.47;0.88;;;;;;;15.22;79.58;100457.94;5005303;28;20061;-57
2023/08/24 01:01:18;;;;;;;1.58;0.70;;;;;;;15.15;79.45;100454.63;5005374;28;20042;-54
2023/08/24 01:03:43;;;;;;;3.08;1.15;;;;;;;15.09;79.72;100458.25;5005339;28;20061;-57
2023/08/24 01:06:08;;;;;;;0.88;0.80;;;;;;;15.08;79.76;100456.53;5005172;28;20082;-56
2023/08/24 01:08:34;;;;;;;1.23;0.88;;;;;;;15.06;79.33;100458.34;5005561;28;20034;-53
2023/08/24 01:11:40;;;;;;;1.08;0.98;;;;;;;14.99;78.99;100448.94;5004292;28;20482;-55
2023/08/24 01:14:23;;;;;;;0.60;0.60;;;;;;;14.88;79.18;100459.66;4994525;28;20121;-54
2023/08/24 01:16:51;;;;;;;4.80;1.30;;;;;;;14.78;79.15;100464.22;5005013;28;20050;-55
2023/08/24 01:19:35;;;;;;;1.08;0.90;;;;;;;14.73;79.04;100460.88;5005436;28;20050;-57
2023/08/24 01:22:04;;;;;;;0.68;0.65;;;;;;;14.65;78.70;100463.66;5005426;28;20031;-55
2023/08/24 01:24:46;;;;;;;1.67;0.70;;;;;;;14.59;79.16;100463.81;5005069;28;20037;-56
2023/08/24 01:27:12;;;;;;;15.55;1.63;;;;;;;14.56;79.01;100463.91;5019959;28;20026;-57
2023/08/24 01:29:40;;;;;;;1.88;1.13;;;;;;;14.47;78.95;100458.00;5005154;28;20030;-56
2023/08/24 01:32:09;;;;;;;1.35;0.88;;;;;;;14.46;78.38;100458.03;5005082;28;20029;-55
2023/08/24 01:34:37;;;;;;;1.35;1.25;;;;;;;14.41;78.85;100449.47;5004890;28;20083;-56
2023/08/24 01:37:03;;;;;;;1.30;1.10;;;;;;;14.40;78.39;100452.97;5005500;28;20037;-57
2023/08/24 01:39:35;;;;;;;3.30;1.25;;;;;;;14.36;78.59;100454.81;5005045;28;20022;-55
2023/08/24 01:42:03;;;;;;;3.97;0.68;;;;;;;14.35;78.58;100456.53;5004892;28;20034;-53
2023/08/24 01:44:31;;;;;;;9.18;1.45;;;;;;;14.34;78.28;100449.63;5005073;28;20025;-56
2023/08/24 01:47:00;;;;;;;6.57;1.65;;;;;;;14.35;78.39;100445.22;5005026;28;20057;-56
2023/08/24 01:49:27;;;;;;;1.10;0.95;;;;;;;14.38;78.34;100451.25;5004948;28;20046;-55
2023/08/24 01:51:53;;;;;;;4.05;1.10;;;;;;;14.37;78.30;100448.69;5003781;28;20034;-57
2023/08/24 01:54:19;;;;;;;7.15;1.17;;;;;;;14.38;78.20;100451.25;5004886;28;20026;-57
2023/08/24 01:56:44;;;;;;;3.38;0.93;;;;;;;14.37;78.41;100446.94;5005052;28;20082;-57
2023/08/24 01:59:10;;;;;;;0.80;0.80;;;;;;;14.40;78.10;100440.78;5004678;28;20058;-56
2023/08/24 02:01:35;;;;;;;4.60;1.13;;;;;;;14.43;78.38;100452.88;5004605;28;20093;-55
2023/08/24 02:04:00;;;;;;;2.08;1.20;;;;;;;14.47;78.21;100444.09;5004961;28;20030;-58
2023/08/24 02:06:27;;;;;;;2.75;1.30;;;;;;;14.51;78.23;100445.72;5004696;28;20018;-58
2023/08/24 02:08:52;;;;;;;2.53;1.60;;;;;;;14.52;78.30;100444.81;5004783;28;20050;-56
2023/08/24 02:11:18;;;;;;;1.75;0.50;;;;;;;14.54;78.18;100431.72;5005053;28;20026;-58
2023/08/24 02:13:43;;;;;;;1.23;1.15;;;;;;;14.56;78.33;100429.94;5004923;28;20026;-57
2023/08/24 02:16:09;;;;;;;1.55;1.10;;;;;;;14.54;78.27;100440.44;5004528;28;20053;-57
2023/08/24 02:18:34;;;;;;;1.92;1.40;;;;;;;14.52;78.16;100437.00;5007752;28;20129;-57
2023/08/24 02:21:00;;;;;;;2.53;2.28;;;;;;;14.52;78.47;100436.16;5008582;28;20018;-57
2023/08/24 02:23:25;;;;;;;3.75;1.60;;;;;;;14.50;78.29;100436.19;5008381;28;20433;-56
2023/08/24 02:25:50;;;;;;;4.55;1.58;;;;;;;14.49;78.50;100440.53;5008215;28;20030;-57
2023/08/24 02:28:16;;;;;;;5.82;1.50;;;;;;;14.48;78.31;100441.44;5008302;28;20026;-58
2023/08/24 02:30:41;;;;;;;6.80;1.70;;;;;;;14.52;78.21;100444.81;5008178;28;20026;-58
2023/08/24 02:33:07;;;;;;;1.70;0.80;;;;;;;14.52;78.24;100443.97;5008013;28;20033;-58
2023/08/24 02:35:33;;;;;;;1.23;0.60;;;;;;;14.54;78.56;100445.66;5008037;28;20370;-55
2023/08/24 02:37:58;;;;;;;1.23;0.93;;;;;;;14.53;78.13;100443.94;5008057;28;20022;-56
2023/08/24 02:40:23;;;;;;;1.17;0.90;;;;;;;14.48;78.23;100441.44;5008133;28;20033;-57
2023/08/24 02:42:49;;;;;;;5.20;1.60;;;;;;;14.46;78.23;100444.97;5008051;28;20033;-56
2023/08/24 02:45:14;;;;;;;3.03;1.30;;;;;;;14.41;78.44;100439.03;5007932;28;20273;-56
2023/08/24 02:47:40;;;;;;;5.25;1.42;;;;;;;14.42;78.04;100445.94;5008313;28;20061;-58
2023/08/24 02:50:06;;;;;;;3.90;1.30;;;;;;;14.41;78.35;100449.47;5007802;28;20042;-55
2023/08/24 02:52:32;;;;;;;2.50;1.30;;;;;;;14.38;78.46;100445.16;5007947;28;20041;-58
2023/08/24 02:54:58;;;;;;;4.20;1.83;;;;;;;14.40;78.46;100442.50;5007743;28;20030;-56
2023/08/24 02:57:23;;;;;;;2.10;1.30;;;;;;;14.39;78.04;100439.06;5007929;28;20038;-57
2023/08/24 02:59:49;;;;;;;5.45;1.58;;;;;;;14.44;77.90;100438.94;5007706;28;20026;-50
2023/08/24 03:02:14;;;;;;;1.98;1.15;;;;;;;14.45;77.93;100448.50;5007445;28;20118;-57
2023/08/24 03:04:40;;;;;;;5.07;1.77;;;;;;;14.45;77.96;100444.13;5007559;28;20019;-56
2023/08/24 03:07:07;;;;;;;3.42;1.38;;;;;;;14.47;77.63;100444.94;5007733;28;20421;-57
2023/08/24 03:09:36;;;;;;;1.63;0.90;;;;;;;14.47;78.05;100446.72;5007442;28;20026;-56
2023/08/24 03:12:02;;;;;;;2.25;1.10;;;;;;;14.47;78.19;100438.88;5007358;28;20034;-55
2023/08/24 03:14:28;;;;;;;1.58;1.15;;;;;;;14.50;78.01;100437.03;5007151;28;20041;-56
2023/08/24 03:16:53;;;;;;;3.25;0.98;;;;;;;14.50;77.98;100434.41;5007321;28;20054;-56
2023/08/24 03:19:19;;;;;;;4.78;1.15;;;;;;;14.52;77.73;100434.38;5007362;28;20539;-56
2023/08/24 03:21:44;;;;;;;4.78;1.20;;;;;;;14.51;77.58;100430.06;5007505;28;20027;-55
2023/08/24 03:24:11;;;;;;;8.68;1.25;;;;;;;14.53;77.55;100443.06;5005872;28;20058;-56
2023/08/24 03:26:36;;;;;;;3.15;1.00;;;;;;;14.50;77.41;100444.03;5007175;28;20022;-55
2023/08/24 03:29:01;;;;;;;2.15;1.17;;;;;;;14.52;77.58;100439.59;5006280;28;20033;-56
2023/08/24 03:31:27;;;;;;;11.30;1.80;;;;;;;14.50;77.42;100431.78;5007112;28;20022;-56
2023/08/24 03:33:52;;;;;;;4.57;1.02;;;;;;;14.49;77.26;100435.31;5007263;28;20030;-55
2023/08/24 03:36:18;;;;;;;6.20;1.85;;;;;;;14.49;77.40;100437.06;5007369;28;20029;-54
2023/08/24 03:38:45;;;;;;;9.13;1.83;;;;;;;14.47;77.34;100431.88;5006919;28;20025;-55
2023/08/24 03:41:10;;;;;;;6.90;1.40;;;;;;;14.49;77.57;100437.06;5006898;28;20061;-55
2023/08/24 03:43:37;;;;;;;1.02;0.85;;;;;;;14.50;77.53;100439.63;5006983;28;20030;-57
2023/08/24 03:46:03;;;;;;;7.57;1.33;;;;;;;14.50;77.57;100442.25;5006724;28;20019;-56
2023/08/24 03:48:29;;;;;;;2.92;1.40;;;;;;;14.52;77.53;100442.22;5007070;28;20046;-56
2023/08/24 03:50:55;;;;;;;6.22;0.80;;;;;;;14.41;77.76;100423.34;5006645;28;20030;-57
2023/08/24 03:53:21;;;;;;;5.43;1.15;;;;;;;14.55;77.96;100447.38;5007021;28;20288;-55
2023/08/24 03:55:50;;;;;;;4.40;1.17;;;;;;;14.52;77.73;100447.44;5006781;28;20027;-58
2023/08/24 03:58:16;;;;;;;2.00;0.82;;;;;;;14.59;77.55;100449.03;5006514;28;20046;-59
2023/08/24 04:00:41;;;;;;;4.85;1.23;;;;;;;14.63;77.58;100449.81;5006711;28;20053;-56
2023/08/24 04:03:07;;;;;;;3.72;1.60;;;;;;;14.65;77.64;100457.63;5006647;28;20026;-55
2023/08/24 04:05:33;;;;;;;4.68;1.50;;;;;;;14.61;77.18;100442.00;5006519;28;20498;-55
2023/08/24 04:08:00;;;;;;;1.55;0.85;;;;;;;14.69;77.17;100443.56;5006639;28;20053;-58
2023/08/24 04:10:26;;;;;;;1.45;1.33;;;;;;;14.69;77.12;100444.44;5006373;28;20029;-56
2023/08/24 04:12:52;;;;;;;4.32;1.08;;;;;;;14.71;77.05;100442.63;5006270;28;20033;-57
2023/08/24 04:15:17;;;;;;;10.40;1.42;;;;;;;14.72;77.18;100439.13;5005549;28;20042;-58
2023/08/24 04:17:43;;;;;;;4.40;1.17;;;;;;;14.74;76.95;100439.91;5006068;28;20033;-57
2023/08/24 04:20:09;;;;;;;7.03;1.30;;;;;;;14.67;76.73;100427.06;5005773;28;20026;-57
2023/08/24 04:22:35;;;;;;;1.90;1.13;;;;;;;14.76;76.93;100439.88;5005995;28;20081;-58
2023/08/24 04:25:00;;;;;;;6.35;1.05;;;;;;;14.79;76.73;100444.19;5005904;28;20296;-57
2023/08/24 04:27:26;;;;;;;8.88;2.22;;;;;;;14.71;76.44;100436.56;5005784;28;20023;-57
2023/08/24 04:29:52;;;;;;;1.95;1.00;;;;;;;14.80;76.30;100436.34;5005875;28;20030;-56
2023/08/24 04:32:17;;;;;;;16.85;1.52;;;;;;;14.83;76.44;100435.41;5005830;28;20029;-55
2023/08/24 04:34:43;;;;;;;2.83;1.63;;;;;;;14.85;76.07;100444.94;5006136;28;20034;-57
2023/08/24 04:37:08;;;;;;;5.72;2.13;;;;;;;14.83;75.85;100444.09;5004790;28;20026;-56
2023/08/24 04:39:34;;;;;;;6.10;1.27;;;;;;;14.89;75.73;100450.09;5005877;28;20053;-56
2023/08/24 04:41:59;;;;;;;2.88;0.88;;;;;;;14.91;75.64;100448.25;5005831;28;20031;-53
2023/08/24 04:44:25;;;;;;;2.75;1.60;;;;;;;14.94;75.91;100435.97;5006178;28;20022;-53
2023/08/24 04:46:50;;;;;;;3.55;1.55;;;;;;;15.00;75.61;100448.00;5005824;28;20463;-57
2023/08/24 04:49:15;;;;;;;9.25;1.67;;;;;;;15.02;75.51;100441.00;5004827;28;20082;-59
2023/08/24 04:51:41;;;;;;;5.80;0.95;;;;;;;15.06;75.07;100442.66;5005939;28;20026;-58
2023/08/24 04:54:06;;;;;;;2.80;1.33;;;;;;;15.11;75.58;100447.75;5005823;28;20042;-56
2023/08/24 04:56:32;;;;;;;1.30;0.82;;;;;;;15.16;75.24;100447.63;5005848;28;20022;-58
2023/08/24 04:59:00;;;;;;;8.52;1.40;;;;;;;15.20;74.95;100444.91;5005702;28;20050;-54
2023/08/24 05:01:26;;;;;;;8.55;1.63;;;;;;;15.19;74.64;100442.31;5005751;28;20033;-53
2023/08/24 05:03:54;;;;;;;2.03;1.20;;;;;;;15.20;74.49;100444.03;5005951;28;20018;-55
2023/08/24 05:06:21;;;;;;;2.50;0.88;;;;;;;15.22;74.71;100448.31;5005598;28;20157;-57
2023/08/24 05:08:46;;;;;;;2.42;1.60;;;;;;;15.28;74.45;100439.44;5005709;28;20034;-57
2023/08/24 05:11:13;;;;;;;3.40;0.98;;;;;;;15.30;74.55;100442.03;5005519;28;20026;-57
2023/08/24 05:13:39;;;;;;;4.78;1.60;;;;;;;15.30;74.02;100445.50;5005851;28;20026;-57
2023/08/24 05:16:05;;;;;;;7.72;1.77;;;;;;;15.31;74.42;100447.22;5004954;28;20050;-58
2023/08/24 05:18:30;;;;;;;2.58;0.82;;;;;;;15.37;74.39;100446.16;5005884;28;20026;-55
2023/08/24 05:20:55;;;;;;;9.00;1.20;;;;;;;15.41;74.22;100444.34;5005575;28;20026;-57
2023/08/24 05:23:21;;;;;;;6.57;1.33;;;;;;;15.42;73.89;100432.97;5005457;28;20046;-57
2023/08/24 05:25:46;;;;;;;3.80;1.08;;;;;;;15.46;74.24;100439.84;5005548;28;20018;-55
2023/08/24 05:28:12;;;;;;;4.65;1.38;;;;;;;15.49;74.12;100434.50;5005650;28;20018;-57
2023/08/24 05:30:37;;;;;;;2.15;1.20;;;;;;;15.51;74.00;100430.06;5005491;28;20037;-56
2023/08/24 05:33:03;;;;;;;2.15;0.82;;;;;;;15.49;73.81;100427.50;5005826;28;20022;-58
2023/08/24 05:35:28;;;;;;;6.90;1.40;;;;;;;15.52;74.21;100423.97;5005503;28;20471;-56
2023/08/24 05:37:53;;;;;;;8.45;0.93;;;;;;;15.56;73.81;100430.81;5005419;28;20041;-55
2023/08/24 05:40:19;;;;;;;3.70;0.95;;;;;;;15.52;73.74;100415.25;5005708;28;20037;-57
2023/08/24 05:42:44;;;;;;;8.00;1.52;;;;;;;15.63;73.92;100428.00;5005478;28;20026;-54
2023/08/24 05:45:11;;;;;;;1.75;1.25;;;;;;;15.68;73.56;100429.59;5005352;28;20025;-58
2023/08/24 05:47:37;;;;;;;1.98;1.05;;;;;;;15.77;73.51;100438.94;5005462;28;20057;-56
2023/08/24 05:50:02;;;;;;;5.38;1.55;;;;;;;15.86;73.72;100438.66;5005378;28;20081;-55
2023/08/24 05:52:28;;;;;;;3.13;0.98;;;;;;;15.95;73.42;100436.66;5006626;28;20022;-56
2023/08/24 05:54:53;;;;;;;3.75;0.93;;;;;;;16.05;73.21;100432.03;5008935;28;20030;-57
2023/08/24 05:57:19;;;;;;;1.92;1.05;;;;;;;16.15;73.30;100435.25;5009396;28;20057;-56
2023/08/24 05:59:44;;;;;;;2.97;0.90;;;;;;;16.25;73.12;100428.78;5009176;28;20168;-57
2023/08/24 06:02:09;;;;;;;5.55;1.40;;;;;;;16.35;72.65;100430.22;5009071;28;20063;-54
2023/08/24 06:04:35;;;;;;;5.53;1.38;;;;;;;16.44;72.52;100425.56;5009207;28;20018;-55
2023/08/24 06:07:00;;;;;;;5.35;1.25;;;;;;;16.50;72.35;100414.03;5009148;28;20040;-58
2023/08/24 06:09:26;;;;;;;2.75;1.15;;;;;;;16.64;71.99;100414.44;5009135;28;20053;-56
2023/08/24 06:11:51;;;;;;;3.22;1.52;;;;;;;16.89;72.11;100410.09;5009123;28;20033;-53
2023/08/24 06:14:17;;;;;;;5.93;1.77;;;;;;;17.11;72.09;100410.22;5008907;28;20022;-54
2023/08/24 06:16:42;;;;;;;5.70;0.95;;;;;;;17.30;71.60;100423.53;5008647;28;20050;-57
2023/08/24 06:19:08;;;;;;;3.00;1.20;;;;;;;17.76;71.86;100414.88;5008845;28;20026;-54
2023/08/24 06:21:33;;;;;;;1.38;0.60;;;;;;;18.09;70.79;100418.84;5008790;28;20040;-57
2023/08/24 06:24:00;;;;;;;16.65;1.70;;;;;;;18.17;69.15;100421.19;5008911;28;20026;-54
2023/08/24 06:26:26;;;;;;;2.03;0.82;;;;;;;18.29;69.98;100420.69;5008737;28;20019;-55
2023/08/24 06:28:51;;;;;;;12.05;1.63;;;;;;;18.34;68.77;100431.03;5008919;28;20026;-56
2023/08/24 06:31:17;;;;;;;2.08;0.95;;;;;;;18.41;67.84;100421.97;5008743;28;20057;-55
2023/08/24 06:33:42;;;;;;;6.55;1.25;;;;;;;18.57;68.10;100419.56;5008616;28;20022;-59
2023/08/24 06:36:08;;;;;;;3.55;1.38;;;;;;;18.75;66.46;100421.47;5008569;28;20146;-56
2023/08/24 06:38:33;;;;;;;9.68;1.48;;;;;;;18.91;66.96;100413.78;5008620;28;20503;-58
2023/08/24 06:40:59;;;;;;;1.63;0.82;;;;;;;18.95;66.32;100412.72;5008413;28;20026;-57
2023/08/24 06:43:28;;;;;;;1.67;0.82;;;;;;;18.95;65.30;100416.22;5008313;28;20137;-56
2023/08/24 06:45:57;;;;;;;1.70;0.77;;;;;;;18.87;65.09;100422.72;5008441;28;20031;-57
2023/08/24 06:48:23;;;;;;;7.10;1.25;;;;;;;18.81;65.15;100414.19;5008389;28;20057;-57
2023/08/24 06:50:48;;;;;;;3.53;1.23;;;;;;;18.97;64.61;100423.19;5008382;28;20030;-55
2023/08/24 06:53:14;;;;;;;1.77;1.10;;;;;;;19.02;63.52;100432.59;5008331;28;20085;-56
2023/08/24 06:55:40;;;;;;;5.45;1.38;;;;;;;19.17;63.12;100430.25;5008639;28;20022;-57
2023/08/24 06:58:06;;;;;;;3.80;1.38;;;;;;;19.26;62.27;100429.84;5008277;28;20026;-57
2023/08/24 07:00:31;;;;;;;2.65;1.05;;;;;;;19.50;63.40;100436.69;5008063;28;20485;-56
2023/08/24 07:02:57;;;;;;;5.15;1.00;;;;;;;19.62;62.93;100420.31;5008002;28;20026;-58
2023/08/24 07:05:23;;;;;;;1.92;0.80;;;;;;;19.93;61.43;100439.09;5007884;28;20078;-57
2023/08/24 07:07:52;;;;;;;1.83;0.95;;;;;;;20.17;61.19;100436.25;5007954;28;20046;-56
2023/08/24 07:10:17;;;;;;;4.05;1.02;;;;;;;20.05;60.28;100443.81;5008076;28;20026;-56
2023/08/24 07:12:44;;;;;;;1.70;0.98;;;;;;;19.88;60.42;100438.47;5008087;28;20030;-54
2023/08/24 07:15:11;;;;;;;4.60;1.20;;;;;;;20.05;59.33;100443.81;5007652;28;20093;-56
2023/08/24 07:17:36;;;;;;;5.38;1.20;;;;;;;20.11;59.78;100436.56;5007813;28;20041;-58
2023/08/24 07:20:05;;;;;;;10.27;1.48;;;;;;;19.86;58.84;100437.66;5007922;28;20026;-57
2023/08/24 07:22:30;;;;;;;1.75;0.68;;;;;;;19.69;59.06;100445.47;5007991;28;20037;-57
2023/08/24 07:24:56;;;;;;;2.20;0.95;;;;;;;19.82;59.50;100445.72;5007942;28;20023;-57
2023/08/24 07:27:21;;;;;;;2.03;0.90;;;;;;;19.69;58.66;100445.47;5007964;28;20030;-56
2023/08/24 07:29:47;;;;;;;1.70;1.10;;;;;;;19.61;58.82;100438.81;5007575;28;20022;-55
2023/08/24 07:32:12;;;;;;;2.72;1.17;;;;;;;19.75;58.85;100449.56;5007481;28;20286;-58
2023/08/24 07:34:38;;;;;;;2.72;1.02;;;;;;;19.94;59.56;100449.56;5007716;28;20061;-58
2023/08/24 07:37:03;;;;;;;3.67;1.38;;;;;;;20.14;59.23;100449.56;5007726;28;20040;-57
2023/08/24 07:39:29;;;;;;;3.35;0.90;;;;;;;20.07;59.55;100430.56;5007879;28;20030;-57
2023/08/24 07:41:55;;;;;;;1.58;0.85;;;;;;;20.32;60.20;100447.81;5006321;28;20026;-58
2023/08/24 07:44:21;;;;;;;2.78;1.15;;;;;;;21.12;59.34;100444.75;5007448;28;20030;-56
2023/08/24 07:46:47;;;;;;;6.00;0.93;;;;;;;21.53;57.10;100453.19;5007352;28;20054;-56
2023/08/24 07:49:12;;;;;;;2.95;1.15;;;;;;;21.58;55.95;100459.06;5006925;28;20022;-57
2023/08/24 07:51:38;;;;;;;4.35;0.77;;;;;;;21.37;55.06;100463.72;5007233;28;20041;-57
2023/08/24 07:54:04;;;;;;;1.92;0.77;;;;;;;20.93;54.70;100466.81;5007080;28;20026;-57
2023/08/24 07:56:30;;;;;;;4.80;1.08;;;;;;;20.78;56.26;100465.75;5006944;28;20035;-55
2023/08/24 07:58:55;;;;;;;2.08;1.08;;;;;;;20.77;56.26;100464.06;5007199;28;20026;-58
2023/08/24 08:01:20;;;;;;;3.63;0.88;;;;;;;20.48;54.00;100469.00;5006687;28;20035;-55
2023/08/24 08:03:46;;;;;;;8.73;0.80;;;;;;;20.16;55.11;100477.56;5007091;28;20022;-56
2023/08/24 08:06:13;;;;;;;1.38;0.77;;;;;;;19.90;55.17;100476.13;5007026;28;20049;-56
2023/08/24 08:08:38;;;;;;;1.48;1.13;;;;;;;19.69;55.14;100477.06;5006853;28;20089;-57
2023/08/24 08:11:04;;;;;;;0.90;0.70;;;;;;;19.60;55.76;100474.81;5006997;28;20085;-57
2023/08/24 08:13:29;;;;;;;3.10;1.08;;;;;;;19.54;56.15;100483.88;5006731;28;20030;-56
2023/08/24 08:16:03;;;;;;;5.95;1.05;;;;;;;19.44;56.17;100480.78;5005635;28;20045;-57
2023/08/24 08:18:29;;;;;;;1.92;1.20;;;;;;;19.40;56.97;100478.34;5006928;28;20041;-58
2023/08/24 08:20:54;;;;;;;3.63;1.23;;;;;;;19.40;56.34;100481.00;5006817;28;20030;-56
2023/08/24 08:23:20;;;;;;;4.43;1.10;;;;;;;19.50;57.32;100477.03;5006513;28;20023;-57
2023/08/24 08:25:45;;;;;;;2.97;0.90;;;;;;;19.68;56.34;100485.03;5006073;28;20027;-57
2023/08/24 08:28:11;;;;;;;4.50;1.25;;;;;;;19.92;56.95;100487.47;5006547;28;20025;-57
2023/08/24 08:30:36;;;;;;;5.47;1.38;;;;;;;19.97;55.79;100485.44;5006522;28;20029;-57
2023/08/24 08:33:02;;;;;;;2.40;0.85;;;;;;;19.98;55.71;100489.81;5006628;28;20048;-57
2023/08/24 08:35:28;;;;;;;1.45;0.73;;;;;;;20.41;56.24;100489.56;5006298;28;20034;-57
2023/08/24 08:37:53;;;;;;;1.42;0.88;;;;;;;20.60;55.53;100493.94;5006004;28;20030;-57
2023/08/24 08:40:19;;;;;;;2.25;0.90;;;;;;;20.93;55.96;100493.19;5006572;28;20029;-57
2023/08/24 08:42:45;;;;;;;0.82;0.60;;;;;;;21.44;55.08;100482.75;5006289;28;20026;-57
2023/08/24 08:45:11;;;;;;;4.15;0.68;;;;;;;22.36;54.11;100485.69;5006200;28;20030;-57
2023/08/24 08:47:37;;;;;;;1.15;0.70;;;;;;;23.09;52.57;100493.88;5005937;28;20026;-58
2023/08/24 08:50:03;;;;;;;0.98;0.60;;;;;;;23.32;48.94;100494.28;5005795;28;20034;-57
2023/08/24 08:52:29;;;;;;;1.40;0.65;;;;;;;22.91;50.25;100496.66;5005735;28;20033;-59
2023/08/24 08:54:55;;;;;;;3.90;0.93;;;;;;;22.54;50.66;100495.22;5005672;28;20027;-56
2023/08/24 08:57:23;;;;;;;3.55;1.13;;;;;;;22.18;51.37;100504.31;5006017;28;20023;-59
2023/08/24 08:59:52;;;;;;;2.17;0.68;;;;;;;22.44;51.76;100502.00;5006075;28;20030;-58
2023/08/24 09:02:19;;;;;;;0.47;0.43;;;;;;;22.40;50.91;100503.94;5005171;28;20602;-58
2023/08/24 09:04:46;;;;;;;5.78;0.70;;;;;;;22.05;49.78;100498.84;5005814;28;20034;-55
2023/08/24 09:07:14;;;;;;;1.40;0.82;;;;;;;22.12;50.27;100499.38;5005971;28;20029;-58
2023/08/24 09:09:39;;;;;;;1.00;0.70;;;;;;;22.27;50.77;100497.63;5005996;28;20030;-57
2023/08/24 09:12:06;;;;;;;3.00;1.10;;;;;;;22.46;50.04;100500.09;5005810;28;20054;-57
2023/08/24 09:14:33;;;;;;;3.28;1.23;;;;;;;22.36;50.32;100494.50;5005515;28;20022;-56
2023/08/24 09:16:58;;;;;;;4.07;0.90;;;;;;;22.08;49.46;100496.03;5004917;28;20041;-57
2023/08/24 09:19:38;;;;;;;3.25;1.15;;;;;;;21.71;50.17;100496.22;5005501;28;20030;-56
2023/08/24 09:22:04;;;;;;;1.40;0.77;;;;;;;21.63;51.61;100495.81;5005765;28;20477;-55
2023/08/24 09:24:31;;;;;;;4.30;1.23;;;;;;;21.40;50.74;100501.38;5005616;28;20494;-58
2023/08/24 09:26:57;;;;;;;6.70;0.88;;;;;;;21.27;50.96;100500.31;5004952;28;20026;-55
2023/08/24 09:29:22;;;;;;;2.30;0.98;;;;;;;21.60;50.89;100493.34;5005423;28;20062;-54
2023/08/24 09:31:50;;;;;;;5.78;0.65;;;;;;;21.68;50.74;100488.47;5005544;28;20025;-57
2023/08/24 09:34:20;;;;;;;1.75;0.75;;;;;;;22.64;50.42;100494.72;5005653;28;20038;-56
2023/08/24 09:36:46;;;;;;;1.35;0.80;;;;;;;23.88;49.48;100494.34;5005554;28;20042;-57
2023/08/24 09:39:13;;;;;;;4.35;0.70;;;;;;;24.24;48.55;100500.09;5005540;28;20034;-57
2023/08/24 09:41:44;;;;;;;1.60;0.93;;;;;;;24.32;47.62;100491.63;5005553;28;20022;-57
2023/08/24 09:44:11;;;;;;;2.10;0.50;;;;;;;24.44;45.65;100500.56;5005465;28;20049;-55
2023/08/24 09:46:38;;;;;;;5.00;0.90;;;;;;;23.70;45.26;100504.34;5005206;28;20019;-56
2023/08/24 09:49:05;;;;;;;0.50;0.50;;;;;;;23.49;46.88;100503.88;5005671;28;20030;-57
2023/08/24 09:51:31;;;;;;;2.25;0.75;;;;;;;23.00;46.49;100492.63;5005422;28;20033;-55
2023/08/24 09:54:01;;;;;;;2.22;0.57;;;;;;;22.41;47.10;100491.59;5020359;28;20054;-57
2023/08/24 09:56:28;;;;;;;5.32;0.80;;;;;;;22.02;48.30;100489.31;5005225;28;20074;-55
2023/08/24 09:58:55;;;;;;;1.95;0.77;;;;;;;22.93;47.74;100496.59;5005285;28;20035;-59
2023/08/24 10:01:23;;;;;;;2.63;0.57;;;;;;;24.04;46.84;100504.00;5005105;28;20110;-57
2023/08/24 10:03:56;;;;;;;2.20;0.93;;;;;;;25.20;45.35;100502.66;5005064;28;20394;-56
2023/08/24 10:06:24;;;;;;;1.60;0.60;;;;;;;26.32;43.79;100488.63;5005338;28;20058;-59
2023/08/24 10:08:54;;;;;;;1.98;0.80;;;;;;;26.14;41.45;100488.16;5005367;28;20105;-58
2023/08/24 10:11:25;;;;;;;0.63;0.55;;;;;;;25.38;41.98;100495.19;5005218;28;20033;-56
2023/08/24 10:14:23;;;;;;;2.22;0.68;;;;;;;25.13;41.51;100486.28;5005240;28;20054;-59
2023/08/24 10:16:50;;;;;;;1.75;0.70;;;;;;;24.40;42.54;100483.16;5004490;28;20050;-56
2023/08/24 10:19:17;;;;;;;2.08;1.30;;;;;;;23.67;44.22;100478.03;5005344;28;20097;-57
2023/08/24 10:21:43;;;;;;;1.77;0.77;;;;;;;23.37;44.75;100476.31;5005149;28;20033;-57
2023/08/24 10:24:09;;;;;;;2.95;1.02;;;;;;;23.20;44.78;100472.03;5005094;28;20027;-58
2023/08/24 10:26:37;;;;;;;1.90;0.82;;;;;;;23.32;45.91;100475.75;5005289;28;20026;-55
2023/08/24 10:29:03;;;;;;;0.80;0.57;;;;;;;24.39;45.01;100476.16;5004963;28;20532;-57
2023/08/24 10:31:30;;;;;;;1.83;0.77;;;;;;;24.92;42.66;100477.97;5004770;28;20041;-57
2023/08/24 10:33:56;;;;;;;1.05;0.50;;;;;;;24.73;43.04;100483.66;5004901;28;20030;-56
2023/08/24 10:36:23;;;;;;;1.38;0.63;;;;;;;24.47;43.31;100487.09;5004988;28;20038;-56
2023/08/24 10:38:48;;;;;;;0.73;0.57;;;;;;;24.53;43.38;100479.69;5006406;28;20030;-58
2023/08/24 10:41:14;;;;;;;2.55;0.75;;;;;;;25.24;42.42;100487.38;5008395;28;20053;-58
2023/08/24 10:43:41;;;;;;;1.05;0.40;;;;;;;26.15;41.77;100470.38;5008473;28;20019;-58
2023/08/24 10:46:15;;;;;;;0.65;0.47;;;;;;;26.87;40.21;100468.59;5006701;28;20156;-56
2023/08/24 10:48:46;;;;;;;4.63;0.80;;;;;;;26.45;39.73;100477.94;5008462;28;20026;-56
2023/08/24 10:51:21;;;;;;;2.33;0.93;;;;;;;25.97;41.72;100490.25;5008139;28;20522;-57
2023/08/24 10:54:03;;;;;;;0.80;0.57;;;;;;;26.42;38.88;100478.13;5008283;28;20044;-58
2023/08/24 10:56:34;;;;;;;1.02;0.40;;;;;;;26.64;38.72;100468.56;5008075;28;20019;-56
2023/08/24 10:59:10;;;;;;;;;;;;;;;26.05;40.26;100467.53;5008675;28;20061;-57
2023/08/24 11:01:42;;;;;;;2.72;0.88;;;;;;;26.50;41.17;100477.59;5007565;28;19920;-58
2023/08/24 11:04:08;;;;;;;0.40;0.38;;;;;;;27.14;40.51;100471.94;5008226;28;20022;-57
2023/08/24 11:06:33;;;;;;;1.13;0.77;;;;;;;27.54;40.15;100473.28;5007816;28;20026;-58
2023/08/24 11:09:13;;;;;;;1.15;0.60;;;;;;;27.89;40.28;100479.44;5007832;28;20531;-56
2023/08/24 11:11:39;;;;;;;1.08;0.70;;;;;;;27.08;39.68;100482.09;5007358;28;20022;-58
2023/08/24 11:14:15;;;;;;;0.50;0.40;;;;;;;25.89;40.79;100487.28;5007459;28;20033;-58
2023/08/24 11:16:43;;;;;;;6.82;0.77;;;;;;;25.29;41.22;100495.84;5006984;28;20403;-58
2023/08/24 11:19:10;;;;;;;3.40;0.85;;;;;;;24.52;42.30;100481.53;5007492;28;20050;-58
2023/08/24 11:21:38;;;;;;;3.60;1.00;;;;;;;24.97;43.26;100481.19;5006987;28;20053;-58